createdAt,value
2018-09-19T00:01:11.440Z,8.80
2018-09-19T00:03:40.749Z,9.23
2018-09-19T00:06:09.938Z,9.90
2018-09-19T00:08:38.437Z,8.63
2018-09-19T00:11:08.005Z,8.00
2018-09-19T00:13:36.487Z,10.37
2018-09-19T00:16:09.193Z,9.07
2018-09-19T00:18:38.027Z,9.13
2018-09-19T00:21:07.479Z,8.97
2018-09-19T00:23:37.213Z,8.27
2018-09-19T00:26:05.898Z,10.63
2018-09-19T00:28:35.238Z,9.50
2018-09-19T00:31:03.959Z,7.77
2018-09-19T00:33:32.676Z,11.43
2018-09-19T00:36:02.812Z,6.90
2018-09-19T00:38:31.342Z,8.50
2018-09-19T00:40:59.826Z,9.47
2018-09-19T00:43:29.223Z,8.07
2018-09-19T00:45:59.544Z,8.83
2018-09-19T00:48:29.862Z,10.33
2018-09-19T00:50:58.338Z,8.90
2018-09-19T00:53:26.774Z,8.83
2018-09-19T00:55:56.449Z,7.97
2018-09-19T00:58:25.559Z,8.77
2018-09-19T01:00:54.245Z,9.60
2018-09-19T01:03:24.326Z,10.60
2018-09-19T01:05:53.521Z,8.07
2018-09-19T01:08:21.985Z,9.60
2018-09-19T01:10:51.936Z,9.73
2018-09-19T01:13:20.420Z,10.37
2018-09-19T01:15:49.830Z,15.07
2018-09-19T01:18:19.159Z,9.80
2018-09-19T01:20:47.644Z,12.03
2018-09-19T01:23:16.413Z,10.50
2018-09-19T01:25:45.311Z,11.87
2018-09-19T01:28:14.026Z,10.00
2018-09-19T01:30:42.849Z,10.13
2018-09-19T01:33:12.380Z,9.83
2018-09-19T01:35:40.846Z,10.40
2018-09-19T01:38:09.586Z,10.30
2018-09-19T01:40:38.636Z,8.50
2018-09-19T01:43:07.108Z,10.73
2018-09-19T01:45:36.474Z,7.40
2018-09-19T01:48:06.097Z,9.70
2018-09-19T01:50:35.986Z,11.13
2018-09-19T01:53:06.168Z,10.37
2018-09-19T01:55:35.287Z,7.20
2018-09-19T01:58:04.683Z,9.40
2018-09-19T02:00:35.128Z,8.63
2018-09-19T02:03:03.590Z,10.40
2018-09-19T02:05:33.017Z,8.40
2018-09-19T02:08:02.168Z,10.00
2018-09-19T02:10:30.895Z,10.77
2018-09-19T02:12:59.649Z,8.57
2018-09-19T02:15:28.107Z,9.17
2018-09-19T02:17:57.938Z,10.63
2018-09-19T02:20:26.389Z,7.23
2018-09-19T02:22:55.250Z,11.07
2018-09-19T02:25:23.720Z,8.30
2018-09-19T02:27:54.329Z,12.33
2018-09-19T02:30:23.314Z,9.20
2018-09-19T02:32:52.312Z,9.47
2018-09-19T02:35:22.757Z,11.13
2018-09-19T02:37:52.186Z,10.30
2018-09-19T02:40:20.644Z,10.10
2018-09-19T02:42:49.125Z,11.23
2018-09-19T02:45:19.358Z,13.20
2018-09-19T02:47:47.808Z,11.03
2018-09-19T02:50:17.216Z,9.80
2018-09-19T02:52:50.067Z,8.27
2018-09-19T02:55:19.794Z,7.10
2018-09-19T02:57:48.276Z,10.13
2018-09-19T03:00:17.159Z,12.37
2018-09-19T03:02:46.713Z,10.57
2018-09-19T03:05:15.187Z,8.80
2018-09-19T03:07:46.302Z,7.50
2018-09-19T03:10:15.644Z,9.03
2018-09-19T03:12:44.939Z,10.40
2018-09-19T03:15:14.546Z,9.17
2018-09-19T03:17:44.411Z,9.10
2018-09-19T03:20:12.967Z,10.27
2018-09-19T03:22:41.751Z,9.47
2018-09-19T03:25:10.791Z,11.47
2018-09-19T03:27:40.920Z,9.87
2018-09-19T03:30:09.404Z,10.30
2018-09-19T03:32:38.125Z,8.90
2018-09-19T03:35:09.749Z,12.83
2018-09-19T03:37:39.655Z,10.97
2018-09-19T03:40:08.771Z,11.87
2018-09-19T03:42:37.972Z,10.47
2018-09-19T03:45:06.528Z,12.10
2018-09-19T03:47:35.001Z,10.50
2018-09-19T03:50:03.946Z,10.47
2018-09-19T03:52:33.627Z,12.03
2018-09-19T03:55:02.181Z,9.43
2018-09-19T03:57:30.903Z,12.27
2018-09-19T04:00:00.316Z,9.87
2018-09-19T04:02:30.197Z,11.53
2018-09-19T04:04:58.869Z,11.83
2018-09-19T04:07:30.050Z,8.37
2018-09-19T04:10:00.420Z,10.13
2018-09-19T04:12:28.953Z,10.43
2018-09-19T04:14:57.933Z,9.63
2018-09-19T04:17:26.464Z,9.67
2018-09-19T04:19:55.269Z,9.43
2018-09-19T04:22:27.683Z,10.43
2018-09-19T04:24:56.141Z,8.17
2018-09-19T04:27:24.935Z,9.83
2018-09-19T04:29:53.907Z,11.17
2018-09-19T04:32:24.252Z,12.17
2018-09-19T04:34:54.208Z,11.13
2018-09-19T04:37:22.698Z,9.40
2018-09-19T04:39:51.899Z,12.03
2018-09-19T04:42:20.735Z,11.53
2018-09-19T04:44:50.331Z,10.93
2018-09-19T04:47:19.607Z,14.47
2018-09-19T04:49:48.723Z,10.80
2018-09-19T04:52:17.217Z,10.00
2018-09-19T04:54:46.168Z,11.10
2018-09-19T04:57:14.627Z,13.27
2018-09-19T04:59:44.333Z,11.60
2018-09-19T05:02:13.262Z,10.60
2018-09-19T05:04:42.641Z,11.83
2018-09-19T05:07:11.376Z,11.87
2018-09-19T05:09:41.125Z,10.67
2018-09-19T05:12:09.571Z,14.63
2018-09-19T05:14:38.452Z,10.73
2018-09-19T05:17:08.236Z,12.97
2018-09-19T05:19:38.035Z,11.97
2018-09-19T05:22:08.049Z,12.23
2018-09-19T05:24:38.792Z,11.17
2018-09-19T05:27:07.649Z,12.27
2018-09-19T05:29:36.992Z,10.67
2018-09-19T05:32:06.154Z,11.77
2018-09-19T05:34:34.659Z,11.67
2018-09-19T05:37:03.586Z,12.90
2018-09-19T05:39:32.098Z,12.27
2018-09-19T05:42:01.331Z,12.47
2018-09-19T05:44:30.032Z,11.90
2018-09-19T05:46:58.498Z,10.67
2018-09-19T05:49:27.395Z,10.50
2018-09-19T05:51:55.820Z,10.60
2018-09-19T05:54:24.396Z,13.20
2018-09-19T05:56:52.792Z,13.53
2018-09-19T05:59:21.335Z,11.00
2018-09-19T06:01:55.427Z,13.90
2018-09-19T06:04:24.219Z,9.90
2018-09-19T06:06:53.077Z,11.07
2018-09-19T06:09:23.035Z,11.93
2018-09-19T06:11:52.165Z,10.80
2018-09-19T06:14:20.935Z,12.03
2018-09-19T06:16:49.603Z,15.80
2018-09-19T06:19:18.781Z,12.63
2018-09-19T06:21:49.402Z,11.17
2018-09-19T06:24:17.842Z,10.80
2018-09-19T06:26:46.458Z,13.80
2018-09-19T06:29:15.401Z,9.87
2018-09-19T06:31:44.733Z,12.83
2018-09-19T06:34:13.936Z,11.03
2018-09-19T06:36:43.290Z,13.37
2018-09-19T06:39:12.540Z,12.07
2018-09-19T06:41:42.468Z,11.47
2018-09-19T06:44:11.298Z,12.73
2018-09-19T06:46:40.689Z,14.13
2018-09-19T06:49:09.622Z,12.50
2018-09-19T06:51:39.430Z,12.77
2018-09-19T06:54:08.798Z,11.33
2018-09-19T06:56:37.704Z,12.57
2018-09-19T06:59:06.497Z,12.13
2018-09-19T07:01:35.360Z,11.30
2018-09-19T07:04:05.003Z,13.97
2018-09-19T07:06:33.452Z,10.77
2018-09-19T07:09:02.202Z,11.83
2018-09-19T07:11:32.313Z,10.80
2018-09-19T07:14:05.652Z,12.90
2018-09-19T07:16:35.133Z,14.07
2018-09-19T07:19:04.360Z,12.70
2018-09-19T07:21:33.501Z,15.20
2018-09-19T07:24:02.206Z,12.90
2018-09-19T07:26:31.652Z,18.73
2018-09-19T07:29:00.744Z,16.77
2018-09-19T07:31:29.253Z,15.33
2018-09-19T07:33:58.049Z,14.23
2018-09-19T07:36:26.787Z,14.50
2018-09-19T07:38:56.226Z,15.03
2018-09-19T07:41:24.940Z,14.13
2018-09-19T07:43:53.750Z,12.47
2018-09-19T07:46:22.735Z,15.17
2018-09-19T07:48:53.693Z,14.90
2018-09-19T07:51:22.167Z,13.97
2018-09-19T07:53:50.977Z,15.87
2018-09-19T07:56:19.481Z,13.80
2018-09-19T07:58:48.271Z,12.77
2018-09-19T08:01:18.368Z,13.33
2018-09-19T08:03:47.134Z,15.97
2018-09-19T08:06:15.736Z,13.53
2018-09-19T08:08:44.722Z,12.73
2018-09-19T08:11:13.269Z,12.40
2018-09-19T08:13:45.522Z,13.57
2018-09-19T08:16:14.352Z,13.33
2018-09-19T08:18:42.885Z,13.40
2018-09-19T08:21:11.427Z,13.07
2018-09-19T08:23:39.864Z,11.43
2018-09-19T08:26:08.322Z,12.53
2018-09-19T08:28:37.155Z,12.67
2018-09-19T08:31:10.045Z,14.43
2018-09-19T08:33:38.755Z,11.93
2018-09-19T08:36:07.287Z,11.73
2018-09-19T08:38:36.292Z,11.00
2018-09-19T08:41:05.193Z,12.23
2018-09-19T08:43:33.898Z,13.40
2018-09-19T08:46:02.623Z,8.93
2018-09-19T08:48:32.037Z,10.47
2018-09-19T08:51:00.730Z,11.60
2018-09-19T08:53:29.505Z,12.07
2018-09-19T08:55:58.044Z,8.37
2018-09-19T08:58:28.058Z,10.73
2018-09-19T09:00:57.919Z,8.70
2018-09-19T09:03:28.809Z,8.70
2018-09-19T09:05:57.937Z,6.77
2018-09-19T09:08:26.664Z,10.33
2018-09-19T09:10:55.240Z,7.30
2018-09-19T09:13:24.329Z,8.67
2018-09-19T09:15:54.206Z,6.90
2018-09-19T09:18:25.845Z,11.53
2018-09-19T09:20:54.510Z,9.63
2018-09-19T09:23:24.229Z,9.57
2018-09-19T09:25:54.042Z,12.53
2018-09-19T09:28:23.255Z,10.00
2018-09-19T09:30:51.940Z,8.73
2018-09-19T09:33:27.479Z,11.97
2018-09-19T09:35:58.998Z,12.57
2018-09-19T09:38:28.986Z,8.83
2018-09-19T09:41:01.368Z,10.57
2018-09-19T09:43:30.791Z,11.27
2018-09-19T09:46:01.056Z,9.63
2018-09-19T09:48:30.158Z,10.63
2018-09-19T09:51:00.366Z,9.27
2018-09-19T09:53:28.893Z,11.17
2018-09-19T09:55:58.080Z,12.83
2018-09-19T09:58:26.951Z,9.80
2018-09-19T10:00:55.462Z,9.37
2018-09-19T10:03:24.847Z,11.47
2018-09-19T10:05:53.321Z,9.50
2018-09-19T10:08:22.479Z,12.87
2018-09-19T10:10:51.352Z,7.97
2018-09-19T10:13:20.044Z,10.40
2018-09-19T10:15:49.069Z,9.63
2018-09-19T10:18:17.686Z,10.47
2018-09-19T10:20:46.492Z,9.53
2018-09-19T10:23:15.288Z,12.67
2018-09-19T10:25:43.816Z,9.23
2018-09-19T10:28:12.249Z,10.17
2018-09-19T10:30:42.454Z,11.90
2018-09-19T10:33:11.052Z,10.17
2018-09-19T10:35:39.591Z,9.13
2018-09-19T10:38:09.041Z,6.97
2018-09-19T10:40:37.869Z,8.97
2018-09-19T10:43:06.712Z,10.23
2018-09-19T10:45:35.200Z,8.47
2018-09-19T10:48:03.700Z,9.17
2018-09-19T10:50:32.182Z,9.20
2018-09-19T10:53:00.990Z,8.57
2018-09-19T10:55:29.479Z,7.17
2018-09-19T10:57:58.787Z,9.60
2018-09-19T11:00:32.225Z,7.63
2018-09-19T11:03:01.244Z,7.57
2018-09-19T11:05:30.515Z,8.97
2018-09-19T11:07:58.969Z,7.07
2018-09-19T11:10:28.182Z,12.93
2018-09-19T11:12:58.519Z,5.47
2018-09-19T11:15:27.504Z,8.00
2018-09-19T11:17:55.980Z,7.10
2018-09-19T11:20:24.787Z,7.20
2018-09-19T11:22:53.253Z,4.80
2018-09-19T11:25:22.230Z,8.10
2018-09-19T11:27:50.937Z,5.03
2018-09-19T11:30:20.129Z,6.57
2018-09-19T11:32:48.951Z,4.57
2018-09-19T11:35:18.227Z,4.00
2018-09-19T11:37:47.728Z,6.63
2018-09-19T11:40:17.850Z,5.27
2018-09-19T11:42:47.710Z,4.37
2018-09-19T11:45:16.480Z,6.93
2018-09-19T11:47:44.970Z,9.77
2018-09-19T11:50:14.084Z,5.70
2018-09-19T11:52:44.956Z,6.73
2018-09-19T11:55:16.593Z,8.33
2018-09-19T11:57:45.461Z,6.93
2018-09-19T12:00:14.144Z,5.43
2018-09-19T12:02:42.614Z,6.47
2018-09-19T12:05:11.553Z,6.97
2018-09-19T12:07:40.100Z,7.70
2018-09-19T12:10:08.844Z,5.53
2018-09-19T12:12:38.311Z,5.37
2018-09-19T12:15:07.817Z,5.43
2018-09-19T12:17:36.538Z,6.63
2018-09-19T12:20:05.448Z,7.97
2018-09-19T12:22:34.376Z,6.57
2018-09-19T12:25:02.871Z,7.80
2018-09-19T12:27:33.179Z,4.17
2018-09-19T12:30:01.708Z,5.07
2018-09-19T12:32:30.528Z,7.77
2018-09-19T12:34:59.028Z,3.43
2018-09-19T12:37:27.787Z,5.27
2018-09-19T12:39:58.488Z,5.00
2018-09-19T12:42:27.354Z,6.27
2018-09-19T12:44:57.596Z,4.73
2018-09-19T12:47:26.040Z,3.73
2018-09-19T12:49:54.745Z,4.63
2018-09-19T12:52:23.681Z,5.80
2018-09-19T12:54:53.794Z,6.77
2018-09-19T12:57:22.232Z,4.07
2018-09-19T12:59:52.972Z,4.73
2018-09-19T13:02:21.509Z,5.37
2018-09-19T13:04:50.196Z,7.53
2018-09-19T13:07:19.020Z,7.60
2018-09-19T13:09:47.972Z,6.07
2018-09-19T13:12:16.676Z,4.87
2018-09-19T13:14:45.567Z,4.80
2018-09-19T13:17:14.023Z,4.37
2018-09-19T13:19:46.197Z,4.90
2018-09-19T13:22:14.680Z,6.43
2018-09-19T13:24:43.389Z,6.20
2018-09-19T13:27:11.870Z,4.07
2018-09-19T13:29:40.711Z,5.07
2018-09-19T13:32:09.190Z,7.07
2018-09-19T13:34:38.089Z,4.83
2018-09-19T13:37:07.481Z,8.60
2018-09-19T13:39:36.187Z,6.80
2018-09-19T13:42:04.915Z,4.73
2018-09-19T13:44:33.464Z,7.13
2018-09-19T13:47:03.088Z,6.73
2018-09-19T13:49:38.944Z,6.50
2018-09-19T13:52:07.834Z,5.40
2018-09-19T13:54:36.676Z,6.73
2018-09-19T13:57:05.499Z,6.90
2018-09-19T13:59:33.980Z,4.80
2018-09-19T14:02:02.456Z,6.93
2018-09-19T14:04:30.914Z,5.33
2018-09-19T14:07:00.496Z,9.83
2018-09-19T14:09:29.537Z,5.37
2018-09-19T14:11:59.055Z,6.50
2018-09-19T14:14:27.632Z,7.17
2018-09-19T14:16:57.569Z,4.90
2018-09-19T14:19:26.120Z,5.50
2018-09-19T14:21:55.542Z,8.20
2018-09-19T14:24:23.961Z,5.20
2018-09-19T14:26:52.864Z,5.57
2018-09-19T14:29:21.430Z,5.83
2018-09-19T14:31:50.757Z,6.80
2018-09-19T14:34:19.242Z,4.67
2018-09-19T14:36:47.730Z,8.57
2018-09-19T14:39:16.594Z,3.87
2018-09-19T14:41:45.620Z,8.13
2018-09-19T14:44:15.538Z,4.33
2018-09-19T14:46:44.030Z,5.23
2018-09-19T14:49:12.762Z,7.57
2018-09-19T14:51:41.756Z,4.77
2018-09-19T14:54:11.469Z,11.37
2018-09-19T14:56:41.119Z,11.60
2018-09-19T14:59:09.581Z,5.77
2018-09-19T15:01:38.068Z,7.67
2018-09-19T15:04:06.899Z,7.47
2018-09-19T15:06:35.357Z,7.67
2018-09-19T15:09:07.135Z,4.27
2018-09-19T15:11:37.478Z,4.13
2018-09-19T15:14:06.591Z,6.73
2018-09-19T15:16:35.390Z,5.47
2018-09-19T15:19:03.925Z,8.03
2018-09-19T15:21:37.017Z,4.07
2018-09-19T15:24:09.647Z,6.80
2018-09-19T15:26:39.089Z,4.93
2018-09-19T15:29:07.913Z,4.90
2018-09-19T15:31:39.416Z,9.00
2018-09-19T15:34:09.747Z,5.90
2018-09-19T15:36:38.196Z,5.67
2018-09-19T15:39:09.132Z,7.10
2018-09-19T15:41:40.726Z,8.13
2018-09-19T15:44:09.280Z,4.05
2018-09-19T15:46:37.857Z,5.15
2018-09-19T15:49:06.327Z,5.12
2018-09-19T15:51:35.813Z,4.50
2018-09-19T15:54:05.213Z,6.77
2018-09-19T15:56:33.765Z,5.47
2018-09-19T15:59:02.324Z,4.60
2018-09-19T16:01:31.897Z,3.77
2018-09-19T16:04:00.529Z,7.17
2018-09-19T16:06:30.200Z,4.57
2018-09-19T16:08:59.356Z,5.43
2018-09-19T16:11:27.824Z,6.20
2018-09-19T16:13:56.313Z,4.43
2018-09-19T16:16:25.484Z,7.73
2018-09-19T16:18:55.201Z,4.97
2018-09-19T16:21:25.035Z,4.03
2018-09-19T16:23:53.786Z,6.40
2018-09-19T16:26:23.209Z,4.40
2018-09-19T16:28:52.567Z,6.90
2018-09-19T16:31:21.392Z,6.87
2018-09-19T16:33:50.165Z,4.10
2018-09-19T16:36:19.616Z,5.90
2018-09-19T16:38:48.124Z,9.03
2018-09-19T16:41:17.292Z,9.03
2018-09-19T16:43:45.769Z,7.07
2018-09-19T16:46:14.987Z,4.80
2018-09-19T16:48:43.450Z,5.33
2018-09-19T16:51:12.679Z,6.07
2018-09-19T16:53:42.444Z,3.67
2018-09-19T16:56:11.684Z,6.70
2018-09-19T16:58:40.572Z,6.80
2018-09-19T17:01:09.044Z,5.57
2018-09-19T17:03:38.381Z,3.70
2018-09-19T17:06:07.576Z,4.60
2018-09-19T17:08:36.045Z,5.27
2018-09-19T17:11:04.868Z,7.63
2018-09-19T17:13:33.691Z,7.77
2018-09-19T17:16:02.376Z,5.17
2018-09-19T17:18:31.232Z,6.97
2018-09-19T17:21:00.123Z,5.63
2018-09-19T17:23:28.593Z,4.53
2018-09-19T17:25:57.094Z,4.97
2018-09-19T17:28:26.022Z,5.27
2018-09-19T17:30:54.809Z,4.20
2018-09-19T17:33:23.564Z,7.87
2018-09-19T17:35:52.912Z,6.80
2018-09-19T17:38:21.629Z,5.90
2018-09-19T17:40:51.001Z,4.67
2018-09-19T17:43:19.553Z,6.33
2018-09-19T17:45:49.576Z,6.73
2018-09-19T17:48:18.054Z,6.13
2018-09-19T17:50:46.568Z,8.43
2018-09-19T17:53:16.581Z,5.03
2018-09-19T17:55:45.088Z,6.17
2018-09-19T17:58:14.131Z,6.30
2018-09-19T18:00:42.745Z,4.40
2018-09-19T18:03:11.482Z,5.53
2018-09-19T18:05:41.313Z,4.10
2018-09-19T18:08:11.095Z,5.57
2018-09-19T18:10:40.525Z,9.57
2018-09-19T18:13:08.984Z,4.53
2018-09-19T18:15:37.906Z,6.03
2018-09-19T18:18:08.439Z,6.23
2018-09-19T18:20:38.831Z,6.70
2018-09-19T18:23:07.629Z,7.20
2018-09-19T18:25:36.724Z,9.33
2018-09-19T18:28:05.604Z,8.67
2018-09-19T18:30:34.689Z,4.27
2018-09-19T18:33:03.648Z,3.83
2018-09-19T18:35:32.093Z,5.53
2018-09-19T18:38:01.103Z,4.83
2018-09-19T18:40:30.395Z,4.87
2018-09-19T18:42:59.175Z,7.77
2018-09-19T18:45:28.065Z,5.03
2018-09-19T18:47:57.474Z,6.77
2018-09-19T18:50:25.976Z,4.83
2018-09-19T18:52:55.072Z,7.10
2018-09-19T18:55:23.950Z,7.47
2018-09-19T18:57:53.656Z,5.43
2018-09-19T19:00:23.122Z,5.83
2018-09-19T19:02:51.778Z,8.93
2018-09-19T19:05:20.880Z,8.73
2018-09-19T19:07:49.676Z,5.70
2018-09-19T19:10:19.103Z,6.13
2018-09-19T19:12:47.814Z,6.47
2018-09-19T19:15:16.534Z,7.20
2018-09-19T19:17:48.571Z,5.90
2018-09-19T19:20:17.016Z,4.23
2018-09-19T19:22:45.801Z,6.00
2018-09-19T19:25:14.673Z,6.10
2018-09-19T19:27:43.316Z,6.60
2018-09-19T19:30:12.148Z,5.43
2018-09-19T19:32:40.833Z,5.63
2018-09-19T19:35:10.340Z,8.37
2018-09-19T19:37:38.961Z,7.13
2018-09-19T19:40:08.110Z,5.17
2018-09-19T19:42:36.915Z,7.43
2018-09-19T19:45:07.306Z,4.20
2018-09-19T19:47:36.318Z,5.03
2018-09-19T19:50:05.248Z,5.80
2018-09-19T19:52:34.521Z,9.37
2018-09-19T19:55:02.993Z,6.50
2018-09-19T19:57:32.046Z,6.23
2018-09-19T20:00:00.493Z,7.40
2018-09-19T20:02:29.235Z,6.10
2018-09-19T20:04:58.638Z,5.53
2018-09-19T20:07:27.409Z,6.07
2018-09-19T20:09:55.870Z,8.00
2018-09-19T20:12:24.489Z,5.97
2018-09-19T20:14:52.925Z,9.20
2018-09-19T20:17:22.132Z,4.67
2018-09-19T20:19:57.145Z,8.10
2018-09-19T20:22:25.701Z,6.33
2018-09-19T20:24:54.529Z,7.10
2018-09-19T20:27:23.450Z,6.60
2018-09-19T20:29:53.643Z,4.53
2018-09-19T20:32:22.210Z,7.77
2018-09-19T20:34:51.451Z,7.43
2018-09-19T20:37:20.678Z,7.10
2018-09-19T20:39:49.162Z,7.87
2018-09-19T20:42:18.105Z,6.53
2018-09-19T20:44:47.016Z,5.13
2018-09-19T20:47:16.387Z,6.33
2018-09-19T20:49:46.927Z,4.80
2018-09-19T20:52:15.720Z,6.27
2018-09-19T20:54:44.457Z,4.53
2018-09-19T20:57:13.829Z,6.43
2018-09-19T20:59:47.764Z,5.77
2018-09-19T21:02:16.477Z,7.90
2018-09-19T21:04:45.512Z,5.83
2018-09-19T21:07:14.228Z,6.20
2018-09-19T21:09:43.098Z,6.97
2018-09-19T21:12:13.742Z,4.97
2018-09-19T21:14:43.089Z,7.03
2018-09-19T21:17:11.574Z,7.83
2018-09-19T21:19:41.434Z,7.33
2018-09-19T21:22:10.893Z,7.73
2018-09-19T21:24:41.605Z,12.33
2018-09-19T21:27:11.149Z,7.37
2018-09-19T21:29:39.664Z,7.43
2018-09-19T21:32:08.168Z,7.10
2018-09-19T21:34:37.069Z,4.97
2018-09-19T21:37:05.765Z,8.97
2018-09-19T21:39:34.675Z,5.90
2018-09-19T21:42:06.810Z,9.03
2018-09-19T21:44:35.528Z,9.17
2018-09-19T21:47:04.300Z,10.03
2018-09-19T21:49:33.249Z,7.23
2018-09-19T21:52:02.194Z,6.43
2018-09-19T21:54:30.906Z,6.97
2018-09-19T21:57:00.674Z,5.73
2018-09-19T21:59:29.385Z,5.40
2018-09-19T22:01:59.307Z,6.17
2018-09-19T22:04:27.997Z,7.03
2018-09-19T22:06:56.452Z,5.60
2018-09-19T22:09:24.942Z,7.83
2018-09-19T22:11:54.340Z,5.13
2018-09-19T22:14:23.097Z,8.43
2018-09-19T22:16:51.549Z,10.17
2018-09-19T22:19:20.933Z,5.53
2018-09-19T22:21:49.393Z,5.87
2018-09-19T22:24:19.081Z,5.37
2018-09-19T22:26:47.524Z,7.10
2018-09-19T22:29:15.997Z,7.10
2018-09-19T22:31:44.668Z,7.53
2018-09-19T22:34:14.982Z,7.40
2018-09-19T22:36:43.815Z,5.67
2018-09-19T22:39:13.120Z,7.03
2018-09-19T22:41:42.613Z,7.50
2018-09-19T22:44:11.793Z,5.50
2018-09-19T22:46:40.938Z,5.93
2018-09-19T22:49:10.958Z,7.53
2018-09-19T22:51:39.632Z,6.63
2018-09-19T22:54:08.584Z,6.93
2018-09-19T22:56:37.510Z,6.37
2018-09-19T22:59:06.912Z,9.67
2018-09-19T23:01:35.899Z,8.53
2018-09-19T23:04:05.185Z,8.13
2018-09-19T23:06:34.106Z,6.67
2018-09-19T23:09:03.028Z,11.07
2018-09-19T23:11:32.924Z,9.37
2018-09-19T23:14:01.612Z,9.27
2018-09-19T23:16:31.163Z,5.20
2018-09-19T23:19:00.370Z,6.60
2018-09-19T23:21:29.081Z,6.33
2018-09-19T23:23:58.548Z,8.23
2018-09-19T23:26:28.410Z,9.37
2018-09-19T23:28:57.097Z,8.20
2018-09-19T23:31:25.873Z,6.77
2018-09-19T23:33:54.332Z,8.20
2018-09-19T23:36:23.041Z,5.27
2018-09-19T23:38:52.488Z,7.23
2018-09-19T23:41:20.988Z,7.63
2018-09-19T23:43:49.586Z,8.00
2018-09-19T23:46:18.298Z,7.80
2018-09-19T23:48:48.125Z,8.87
2018-09-19T23:51:16.924Z,13.87
2018-09-19T23:53:46.086Z,7.10
2018-09-19T23:56:15.976Z,6.40
2018-09-19T23:58:45.639Z,8.80
